Time;durP1;ratioP1;P1;durP2;ratioP2;P2;SDS_P1;SDS_P2;PMS_P1;PMS_P2;Temp;Humidity;BMP_temperature;BMP_pressure;BME280_temperature;BME280_humidity;BME280_pressure;Samples;Min_cycle;Max_cycle;Signal;HPM_P1;HPM_P2
2023/02/07 00:00:57;;;;;;;60.85;47.98;;;25.80;96.20;;;;;;1853157;76;21170;-84
2023/02/07 00:03:27;;;;;;;57.85;49.50;;;25.80;96.40;;;;;;1865617;76;21127;-83
2023/02/07 00:06:06;;;;;;;59.10;48.17;;;25.80;96.50;;;;;;1823332;77;21107;-84
2023/02/07 00:08:37;;;;;;;58.55;49.20;;;25.70;96.50;;;;;;1860530;76;21784;-83
2023/02/07 00:11:11;;;;;;;58.00;48.33;;;25.70;96.60;;;;;;1863518;76;21154;-84
2023/02/07 00:13:42;;;;;;;59.73;49.38;;;25.70;96.60;;;;;;1812875;77;21613;-84
2023/02/07 00:16:14;;;;;;;62.95;51.35;;;25.80;96.60;;;;;;1854299;76;21122;-83
2023/02/07 00:18:45;;;;;;;62.45;48.92;;;25.70;96.70;;;;;;1831427;77;21095;-83
2023/02/07 00:21:18;;;;;;;68.83;54.27;;;25.70;96.60;;;;;;1852821;76;21154;-83
2023/02/07 00:23:49;;;;;;;67.25;52.50;;;25.80;96.60;;;;;;1840253;77;21595;-81
2023/02/07 00:26:21;;;;;;;63.95;53.28;;;25.80;96.60;;;;;;1826734;77;21270;-83
2023/02/07 00:28:53;;;;;;;65.95;52.33;;;25.80;96.70;;;;;;1870948;76;22358;-83
2023/02/07 00:31:27;;;;;;;63.70;52.27;;;25.70;96.50;;;;;;1859388;76;21283;-85
2023/02/07 00:34:01;;;;;;;69.37;53.38;;;25.80;96.70;;;;;;1873209;76;21974;-83
2023/02/07 00:36:34;;;;;;;72.62;53.38;;;25.70;96.60;;;;;;1800622;77;21128;-83
2023/02/07 00:39:07;;;;;;;76.53;54.80;;;25.80;96.70;;;;;;1884171;76;21099;-82
2023/02/07 00:41:39;;;;;;;66.92;55.15;;;25.80;96.70;;;;;;1880829;76;21157;-84
2023/02/07 00:44:10;;;;;;;66.30;54.63;;;25.80;96.60;;;;;;1827626;77;21096;-82
2023/02/07 00:46:41;;;;;;;66.97;53.92;;;25.90;96.60;;;;;;1872103;76;21150;-82
2023/02/07 00:49:12;;;;;;;70.03;54.00;;;25.90;96.60;;;;;;1812171;77;21233;-83
2023/02/07 00:51:44;;;;;;;65.52;55.52;;;25.80;96.50;;;;;;1849342;76;21574;-83
2023/02/07 00:54:15;;;;;;;64.25;53.15;;;25.80;96.50;;;;;;1858988;76;21588;-72
2023/02/07 00:56:45;;;;;;;63.35;52.73;;;25.80;96.60;;;;;;1828636;77;21103;-73
2023/02/07 00:59:16;;;;;;;68.70;54.53;;;25.80;96.50;;;;;;1804485;78;21214;-72
2023/02/07 01:01:47;;;;;;;67.08;55.03;;;25.90;96.50;;;;;;1864205;76;21176;-71
2023/02/07 01:04:17;;;;;;;73.62;56.98;;;25.90;96.50;;;;;;1847633;76;21209;-71
2023/02/07 01:06:59;;;;;;;71.10;58.08;;;25.90;96.60;;;;;;1848171;76;21208;-71
2023/02/07 01:09:30;;;;;;;68.30;56.20;;;25.90;96.60;;;;;;1819152;77;21265;-72
2023/02/07 01:12:00;;;;;;;68.75;57.70;;;25.90;96.60;;;;;;1850099;76;21146;-71
2023/02/07 01:14:31;;;;;;;74.35;58.05;;;25.90;96.60;;;;;;1858415;76;21126;-72
2023/02/07 01:17:03;;;;;;;72.47;54.18;;;25.90;96.70;;;;;;1824434;77;21217;-71
2023/02/07 01:19:34;;;;;;;66.30;54.45;;;25.90;96.90;;;;;;1861940;76;21080;-70
2023/02/07 01:22:05;;;;;;;66.42;55.65;;;25.90;96.60;;;;;;1815599;77;22115;-71
2023/02/07 01:24:37;;;;;;;63.25;54.38;;;26.00;96.60;;;;;;1859732;76;21114;-72
2023/02/07 01:27:09;;;;;;;64.17;56.80;;;26.00;96.60;;;;;;1862682;76;21181;-72
2023/02/07 01:29:40;;;;;;;82.45;56.23;;;26.00;96.60;;;;;;1859753;76;21154;-71
2023/02/07 01:32:11;;;;;;;70.52;55.58;;;26.00;96.50;;;;;;1851143;76;21665;-72
2023/02/07 01:34:42;;;;;;;62.90;52.80;;;26.10;96.60;;;;;;1811308;77;21170;-72
2023/02/07 01:37:13;;;;;;;65.42;53.17;;;26.20;96.60;;;;;;1845630;76;21134;-73
2023/02/07 01:39:44;;;;;;;61.37;52.20;;;26.30;96.50;;;;;;1820356;77;21174;-71
2023/02/07 01:42:16;;;;;;;63.80;53.78;;;26.30;96.30;;;;;;1854696;76;21134;-71
2023/02/07 01:44:52;;;;;;;65.42;56.08;;;26.40;96.20;;;;;;1857994;76;21223;-72
2023/02/07 01:47:25;;;;;;;66.97;52.73;;;26.40;96.10;;;;;;1848429;76;21677;-73
2023/02/07 01:49:58;;;;;;;67.78;55.92;;;26.50;96.00;;;;;;1816416;77;21243;-72
2023/02/07 01:52:32;;;;;;;71.53;55.45;;;26.50;95.90;;;;;;1848729;76;21241;-72
2023/02/07 01:55:08;;;;;;;72.85;56.70;;;26.50;96.00;;;;;;1832173;76;21170;-73
2023/02/07 01:57:40;;;;;;;68.92;55.35;;;26.60;95.90;;;;;;1852395;76;21242;-71
2023/02/07 02:00:20;;;;;;;67.53;57.33;;;26.60;95.80;;;;;;1869123;76;21119;-72
2023/02/07 02:02:52;;;;;;;64.87;54.18;;;26.60;95.70;;;;;;1823876;77;21682;-71
2023/02/07 02:05:23;;;;;;;67.60;55.38;;;26.70;95.60;;;;;;1864922;76;21598;-72
2023/02/07 02:07:54;;;;;;;65.37;55.17;;;26.70;95.60;;;;;;1869312;75;21251;-72
2023/02/07 02:10:28;;;;;;;75.60;56.58;;;26.70;95.40;;;;;;1826733;77;21194;-72
2023/02/07 02:13:04;;;;;;;66.82;54.42;;;26.80;95.40;;;;;;1865911;75;22311;-72
2023/02/07 02:15:58;;;;;;;66.22;54.18;;;26.80;95.20;;;;;;1862733;75;21146;-72
2023/02/07 02:19:05;;;;;;;102.20;58.25;;;26.80;95.00;;;;;;1816127;78;21673;-72
2023/02/07 02:22:12;;;;;;;77.25;55.10;;;26.90;95.10;;;;;;1856892;76;21252;-72
2023/02/07 02:25:11;;;;;;;68.67;53.42;;;26.90;95.10;;;;;;1854124;76;21232;-72
2023/02/07 02:28:02;;;;;;;64.90;53.50;;;27.00;95.00;;;;;;1814152;78;21131;-72
2023/02/07 02:30:38;;;;;;;66.70;52.55;;;27.00;94.80;;;;;;1852954;76;21210;-73
2023/02/07 02:33:16;;;;;;;69.20;52.85;;;27.10;94.60;;;;;;1853371;76;21736;-72
2023/02/07 02:35:49;;;;;;;61.25;50.10;;;27.20;94.40;;;;;;1856985;76;21158;-72
2023/02/07 02:38:47;;;;;;;62.67;51.00;;;27.20;94.20;;;;;;1810441;77;21201;-72
2023/02/07 02:41:27;;;;;;;57.53;49.93;;;27.30;94.10;;;;;;1852364;76;21785;-72
2023/02/07 02:44:06;;;;;;;75.72;53.05;;;27.40;93.80;;;;;;1810314;77;21704;-71
2023/02/07 02:46:40;;;;;;;65.47;49.30;;;27.50;93.70;;;;;;1857557;76;21185;-73
2023/02/07 02:49:14;;;;;;;58.78;48.25;;;27.60;93.70;;;;;;1856124;77;21665;-72
2023/02/07 02:51:44;;;;;;;77.85;49.10;;;27.70;93.40;;;;;;1856844;76;21162;-71
2023/02/07 02:54:30;;;;;;;62.75;46.02;;;27.80;93.20;;;;;;1816431;77;21666;-73
2023/02/07 02:57:13;;;;;;;61.05;49.10;;;27.80;93.20;;;;;;1856064;77;21147;-73
2023/02/07 02:59:59;;;;;;;57.80;49.13;;;27.90;93.10;;;;;;1817401;78;21123;-72
2023/02/07 03:02:37;;;;;;;56.37;48.10;;;28.00;92.90;;;;;;1855446;76;21202;-72
2023/02/07 03:05:20;;;;;;;56.48;48.60;;;28.10;92.90;;;;;;1818149;76;21193;-73
2023/02/07 03:07:56;;;;;;;60.63;48.85;;;28.10;92.60;;;;;;1852118;76;21754;-72
2023/02/07 03:10:38;;;;;;;58.48;48.33;;;28.20;92.40;;;;;;1856325;76;21158;-72
2023/02/07 03:13:15;;;;;;;55.90;46.33;;;28.30;92.20;;;;;;1812940;78;21638;-73
2023/02/07 03:15:58;;;;;;;56.58;44.67;;;28.30;91.80;;;;;;1853008;76;21630;-72
2023/02/07 03:18:38;;;;;;;48.17;41.73;;;28.40;91.70;;;;;;1794846;78;21223;-72
2023/02/07 03:21:11;;;;;;;51.20;42.78;;;28.50;91.40;;;;;;1805356;77;21114;-72
2023/02/07 03:23:44;;;;;;;59.45;44.73;;;28.60;91.40;;;;;;1837735;77;21079;-73
2023/02/07 03:26:16;;;;;;;49.15;43.83;;;28.70;91.00;;;;;;1804591;77;21162;-72
2023/02/07 03:28:48;;;;;;;57.35;48.63;;;28.80;90.70;;;;;;1844944;77;21581;-71
2023/02/07 03:31:21;;;;;;;63.90;50.85;;;28.90;90.90;;;;;;1786179;79;21218;-72
2023/02/07 03:33:55;;;;;;;58.40;51.35;;;29.00;91.10;;;;;;1838571;76;21173;-72
2023/02/07 03:36:31;;;;;;;61.77;50.40;;;29.10;91.30;;;;;;1769959;79;21172;-74
2023/02/07 03:39:02;;;;;;;70.80;55.10;;;29.10;91.20;;;;;;1839336;76;21600;-74
2023/02/07 03:41:44;;;;;;;58.45;50.00;;;29.30;91.60;;;;;;1838970;76;21891;-73
2023/02/07 03:44:16;;;;;;;60.43;52.62;;;29.40;90.90;;;;;;1838408;76;21148;-73
2023/02/07 03:46:52;;;;;;;65.42;52.53;;;29.50;90.90;;;;;;1803725;77;21260;-73
2023/02/07 03:49:23;;;;;;;60.67;53.73;;;29.60;90.90;;;;;;1836638;76;21248;-72
2023/02/07 03:51:55;;;;;;;58.98;51.23;;;29.60;90.90;;;;;;1804816;77;21142;-72
2023/02/07 03:54:27;;;;;;;59.80;51.50;;;29.60;90.50;;;;;;1830709;76;21124;-72
2023/02/07 03:57:01;;;;;;;61.15;50.70;;;29.60;90.60;;;;;;1809884;77;21137;-72
2023/02/07 03:59:33;;;;;;;61.28;50.52;;;29.70;90.50;;;;;;1805620;77;21256;-73
2023/02/07 04:02:04;;;;;;;60.40;52.88;;;29.70;90.30;;;;;;1837872;77;21175;-73
2023/02/07 04:04:35;;;;;;;89.70;54.73;;;29.90;90.10;;;;;;1837153;76;21161;-71
2023/02/07 04:07:06;;;;;;;60.55;50.70;;;29.90;89.10;;;;;;1834922;76;21160;-71
2023/02/07 04:09:37;;;;;;;53.73;47.93;;;30.00;90.00;;;;;;1801808;77;21193;-71
2023/02/07 04:12:08;;;;;;;56.95;47.80;;;30.00;89.30;;;;;;1805504;77;21182;-72
2023/02/07 04:14:39;;;;;;;57.15;49.93;;;30.00;89.30;;;;;;1833101;76;21156;-72
2023/02/07 04:17:10;;;;;;;53.65;46.92;;;29.90;89.20;;;;;;1833410;77;21176;-72
2023/02/07 04:19:44;;;;;;;56.25;49.15;;;29.90;89.00;;;;;;1819443;78;21256;-72
2023/02/07 04:22:15;;;;;;;56.23;45.70;;;29.90;89.70;;;;;;1823624;78;21162;-73
2023/02/07 04:24:46;;;;;;;59.35;50.67;;;30.00;89.20;;;;;;1830486;78;21162;-73
2023/02/07 04:27:17;;;;;;;55.85;47.20;;;30.10;89.00;;;;;;1738686;81;21095;-72
2023/02/07 04:29:48;;;;;;;56.28;48.70;;;30.20;88.80;;;;;;1806190;78;21153;-72
2023/02/07 04:32:21;;;;;;;56.15;49.42;;;30.20;88.60;;;;;;1806114;77;21280;-74
2023/02/07 04:34:52;;;;;;;53.08;47.00;;;30.30;88.60;;;;;;1818411;78;21182;-72
2023/02/07 04:37:23;;;;;;;56.53;48.38;;;30.40;88.10;;;;;;1819244;78;21901;-73
2023/02/07 04:39:54;;;;;;;57.27;46.73;;;30.60;87.30;;;;;;1818261;77;21096;-72
2023/02/07 04:42:25;;;;;;;54.13;44.58;;;30.70;87.10;;;;;;1816025;78;21240;-73
2023/02/07 04:44:56;;;;;;;49.38;43.38;;;30.80;86.60;;;;;;1818224;77;21227;-73
2023/02/07 04:47:27;;;;;;;60.38;53.65;;;30.90;85.90;;;;;;1815502;77;21597;-73
2023/02/07 04:49:58;;;;;;;52.38;45.48;;;31.00;85.70;;;;;;1812795;78;21101;-72
2023/02/07 04:52:29;;;;;;;52.33;46.58;;;31.20;86.10;;;;;;1819172;78;21122;-73
2023/02/07 04:55:00;;;;;;;53.83;45.35;;;31.20;85.40;;;;;;1820826;78;21189;-72
2023/02/07 04:57:31;;;;;;;55.88;44.80;;;31.40;85.20;;;;;;1818489;78;21107;-73
2023/02/07 05:00:05;;;;;;;52.88;46.25;;;31.40;84.60;;;;;;1814860;77;21099;-74
2023/02/07 05:02:42;;;;;;;56.30;44.38;;;31.50;83.80;;;;;;1814689;78;21143;-73
2023/02/07 05:05:14;;;;;;;52.53;43.70;;;31.60;83.20;;;;;;1822941;78;21130;-71
2023/02/07 05:07:46;;;;;;;49.73;42.80;;;31.60;82.80;;;;;;1817124;78;21151;-72
2023/02/07 05:10:17;;;;;;;47.93;42.48;;;31.70;83.40;;;;;;1821486;77;21146;-82
2023/02/07 05:12:48;;;;;;;52.45;45.38;;;31.70;83.70;;;;;;1776849;79;21158;-82
2023/02/07 05:15:19;;;;;;;43.87;38.90;;;31.70;82.50;;;;;;1820180;78;21149;-84
2023/02/07 05:17:51;;;;;;;45.63;39.42;;;31.80;81.40;;;;;;1821744;77;21083;-84
2023/02/07 05:20:25;;;;;;;43.28;38.53;;;31.90;81.50;;;;;;1810507;78;21194;-83
2023/02/07 05:22:57;;;;;;;41.60;37.13;;;32.00;80.40;;;;;;1811750;78;21088;-84
2023/02/07 05:25:30;;;;;;;41.53;36.45;;;32.10;80.30;;;;;;1807259;78;21135;-82
2023/02/07 05:28:02;;;;;;;47.00;41.80;;;32.20;79.30;;;;;;1779800;79;21726;-82
2023/02/07 05:30:33;;;;;;;40.80;36.40;;;32.30;78.60;;;;;;1776624;79;21244;-84
2023/02/07 05:33:13;;;;;;;42.00;36.98;;;32.40;77.40;;;;;;1808780;78;21163;-83
2023/02/07 05:35:45;;;;;;;40.43;35.75;;;32.50;78.90;;;;;;1813543;78;21937;-83
2023/02/07 05:38:18;;;;;;;39.90;35.68;;;32.60;77.20;;;;;;1745852;80;21205;-82
2023/02/07 05:40:49;;;;;;;42.70;38.23;;;32.60;76.90;;;;;;1814913;78;21122;-83
2023/02/07 05:43:20;;;;;;;43.58;37.85;;;32.60;77.60;;;;;;1781575;79;21134;-82
2023/02/07 05:45:52;;;;;;;39.05;32.25;;;32.60;76.60;;;;;;1801843;78;21602;-81
2023/02/07 05:48:23;;;;;;;37.67;33.53;;;32.70;76.70;;;;;;1781730;79;21236;-82
2023/02/07 05:50:54;;;;;;;38.53;34.43;;;32.70;77.60;;;;;;1805712;78;21171;-84
2023/02/07 05:53:25;;;;;;;36.90;32.90;;;32.60;76.20;;;;;;1800699;78;21222;-82
2023/02/07 05:55:55;;;;;;;36.48;32.35;;;32.50;76.00;;;;;;1818446;78;21096;-82
2023/02/07 05:58:26;;;;;;;35.28;31.48;;;32.30;75.60;;;;;;1804233;78;21116;-82
2023/02/07 06:00:57;;;;;;;35.85;32.05;;;32.20;77.90;;;;;;1773621;80;21575;-83
2023/02/07 06:03:28;;;;;;;41.58;35.30;;;32.10;76.80;;;;;;1810648;78;21205;-84
2023/02/07 06:05:59;;;;;;;44.60;37.33;;;31.90;77.20;;;;;;1785148;79;21225;-72
2023/02/07 06:08:30;;;;;;;37.28;33.28;;;31.70;77.20;;;;;;1812033;78;21251;-73
2023/02/07 06:11:01;;;;;;;37.65;33.63;;;31.70;78.40;;;;;;1803701;78;21252;-72
2023/02/07 06:13:32;;;;;;;42.20;37.35;;;31.70;78.70;;;;;;1798513;78;21174;-73
2023/02/07 06:16:03;;;;;;;35.23;31.48;;;31.80;77.50;;;;;;1803176;78;21165;-73
2023/02/07 06:18:34;;;;;;;38.60;33.05;;;31.90;76.10;;;;;;1772660;79;22123;-73
2023/02/07 06:21:05;;;;;;;28.40;25.35;;;31.90;76.10;;;;;;1779244;79;21602;-74
2023/02/07 06:23:37;;;;;;;28.75;22.30;;;32.00;75.00;;;;;;1805991;79;21628;-75
2023/02/07 06:26:08;;;;;;;23.65;21.15;;;32.00;71.60;;;;;;1841107;78;21163;-73
2023/02/07 06:28:39;;;;;;;23.05;20.12;;;32.10;72.70;;;;;;1853793;76;21600;-73
2023/02/07 06:31:10;;;;;;;24.75;22.13;;;32.00;70.80;;;;;;1847040;76;21251;-73
2023/02/07 06:33:41;;;;;;;25.35;21.37;;;32.00;71.60;;;;;;1841564;78;21144;-70
2023/02/07 06:36:12;;;;;;;25.70;22.45;;;31.90;72.20;;;;;;1847786;76;21087;-72
2023/02/07 06:38:43;;;;;;;31.60;27.25;;;31.90;72.10;;;;;;1838527;76;21230;-71
2023/02/07 06:41:14;;;;;;;32.58;29.07;;;31.80;74.30;;;;;;1853358;77;21192;-72
2023/02/07 06:43:44;;;;;;;30.82;27.25;;;31.80;75.60;;;;;;1843535;78;21080;-73
2023/02/07 06:46:15;;;;;;;29.85;26.75;;;31.80;74.60;;;;;;1849667;76;21652;-72
2023/02/07 06:48:46;;;;;;;31.85;28.65;;;31.90;74.80;;;;;;1829968;77;21079;-74
2023/02/07 06:51:17;;;;;;;34.55;30.90;;;32.00;76.00;;;;;;1840449;76;21142;-74
2023/02/07 06:53:48;;;;;;;35.60;30.75;;;32.10;76.40;;;;;;1823096;77;21131;-73
2023/02/07 06:56:19;;;;;;;36.60;32.23;;;32.20;76.60;;;;;;1851043;76;21146;-73
2023/02/07 06:58:50;;;;;;;36.60;29.25;;;32.30;75.60;;;;;;1836378;76;21122;-72
2023/02/07 07:01:21;;;;;;;30.80;27.73;;;32.50;75.70;;;;;;1832060;77;21175;-71
2023/02/07 07:03:52;;;;;;;31.25;28.15;;;32.50;75.20;;;;;;1851018;77;21180;-72
2023/02/07 07:06:23;;;;;;;30.32;26.60;;;32.50;75.40;;;;;;1840990;78;21213;-71
2023/02/07 07:08:54;;;;;;;36.50;32.20;;;32.50;74.50;;;;;;1848165;76;21184;-73
2023/02/07 07:11:25;;;;;;;28.45;25.45;;;32.50;74.60;;;;;;1836722;76;21201;-72
2023/02/07 07:13:56;;;;;;;27.75;24.87;;;32.40;73.00;;;;;;1848991;77;21052;-72
2023/02/07 07:16:27;;;;;;;25.80;22.27;;;32.40;74.00;;;;;;1843888;77;21601;-71
2023/02/07 07:18:59;;;;;;;28.85;25.75;;;32.40;73.20;;;;;;1845672;76;21144;-72
2023/02/07 07:21:30;;;;;;;27.42;23.38;;;32.40;72.10;;;;;;1848477;76;21191;-72
2023/02/07 07:24:01;;;;;;;33.20;22.42;;;32.30;71.40;;;;;;1841162;76;21130;-72
2023/02/07 07:26:32;;;;;;;26.93;24.10;;;32.30;71.30;;;;;;1845466;76;21079;-72
2023/02/07 07:29:04;;;;;;;30.90;25.97;;;32.40;71.40;;;;;;1836938;76;21127;-71
2023/02/07 07:31:35;;;;;;;27.98;24.77;;;32.30;72.10;;;;;;1839550;76;21217;-72
2023/02/07 07:34:05;;;;;;;27.62;24.80;;;32.30;73.10;;;;;;1841736;76;21231;-72
2023/02/07 07:36:37;;;;;;;28.57;24.18;;;32.20;73.60;;;;;;1842697;76;21087;-72
2023/02/07 07:39:08;;;;;;;26.75;23.95;;;32.20;74.10;;;;;;1848072;76;21190;-72
2023/02/07 07:41:39;;;;;;;29.40;26.23;;;32.10;73.80;;;;;;1852352;76;21147;-75
2023/02/07 07:44:13;;;;;;;30.10;25.40;;;32.20;73.60;;;;;;1845917;76;21145;-72
2023/02/07 07:46:44;;;;;;;28.00;24.57;;;32.30;73.50;;;;;;1853918;77;21080;-73
2023/02/07 07:49:15;;;;;;;26.75;24.00;;;32.30;74.00;;;;;;1847457;76;21219;-72
2023/02/07 07:51:46;;;;;;;26.87;22.95;;;32.20;72.80;;;;;;1846030;76;21180;-71
2023/02/07 07:54:16;;;;;;;30.43;23.52;;;32.30;73.20;;;;;;1846729;77;21245;-72
2023/02/07 07:56:49;;;;;;;24.15;21.75;;;32.30;73.20;;;;;;1852361;76;21179;-71
2023/02/07 07:59:19;;;;;;;26.40;23.65;;;32.30;72.70;;;;;;1838409;76;21066;-72
2023/02/07 08:01:52;;;;;;;25.10;22.45;;;32.30;72.10;;;;;;1839679;76;21091;-72
2023/02/07 08:04:23;;;;;;;31.87;26.25;;;32.20;72.50;;;;;;1846528;76;21153;-72
2023/02/07 08:06:54;;;;;;;28.00;25.00;;;32.20;72.60;;;;;;1847206;76;21685;-72
2023/02/07 08:09:25;;;;;;;25.40;22.77;;;32.10;71.90;;;;;;1849519;76;21123;-72
2023/02/07 08:11:56;;;;;;;19.67;17.57;;;32.10;72.30;;;;;;1839321;76;22294;-71
2023/02/07 08:14:27;;;;;;;26.35;21.90;;;32.10;68.10;;;;;;1854584;76;21142;-72
2023/02/07 08:16:58;;;;;;;25.52;22.15;;;32.10;69.70;;;;;;1841426;76;21574;-71
2023/02/07 08:19:30;;;;;;;26.95;21.55;;;32.10;69.80;;;;;;1848217;76;21122;-72
2023/02/07 08:22:01;;;;;;;29.98;26.73;;;32.10;70.20;;;;;;1838437;76;21162;-71
2023/02/07 08:24:33;;;;;;;29.27;26.00;;;32.20;72.90;;;;;;1813408;77;21228;-73
2023/02/07 08:27:05;;;;;;;29.55;26.17;;;32.20;73.60;;;;;;1839026;76;21120;-70
2023/02/07 08:29:36;;;;;;;29.67;26.60;;;32.20;73.70;;;;;;1846013;76;21776;-71
2023/02/07 08:32:07;;;;;;;28.85;25.75;;;32.20;73.90;;;;;;1842555;76;21118;-72
2023/02/07 08:34:37;;;;;;;31.00;27.80;;;32.20;74.40;;;;;;1845794;76;21269;-73
2023/02/07 08:37:09;;;;;;;36.42;29.37;;;32.10;74.10;;;;;;1812023;78;21167;-72
2023/02/07 08:39:51;;;;;;;31.17;27.87;;;32.10;74.40;;;;;;1847361;77;21647;-73
2023/02/07 08:42:31;;;;;;;32.23;27.17;;;32.10;74.30;;;;;;1847842;76;21153;-71
2023/02/07 08:45:04;;;;;;;32.30;28.50;;;32.20;74.10;;;;;;1847279;76;21645;-72
2023/02/07 08:47:36;;;;;;;28.00;24.95;;;32.20;74.90;;;;;;1840658;76;21100;-72
2023/02/07 08:50:12;;;;;;;30.23;25.57;;;32.10;73.00;;;;;;1841453;76;21207;-72
2023/02/07 08:52:43;;;;;;;30.35;27.15;;;32.10;72.70;;;;;;1835754;77;21220;-72
2023/02/07 08:55:20;;;;;;;35.75;29.92;;;32.10;73.60;;;;;;1832439;76;21575;-72
2023/02/07 08:57:51;;;;;;;30.70;25.80;;;32.10;73.20;;;;;;1837165;76;21249;-72
2023/02/07 09:00:22;;;;;;;30.30;26.00;;;32.10;73.10;;;;;;1837364;76;21078;-73
2023/02/07 09:02:53;;;;;;;28.38;25.15;;;32.10;73.10;;;;;;1846026;76;21258;-73
2023/02/07 09:05:24;;;;;;;28.25;25.48;;;32.30;72.80;;;;;;1834235;76;21150;-72
2023/02/07 09:07:55;;;;;;;23.65;20.10;;;32.30;72.00;;;;;;1840012;76;21193;-72
2023/02/07 09:10:26;;;;;;;23.32;19.62;;;32.20;70.40;;;;;;1835218;76;21622;-71
2023/02/07 09:12:57;;;;;;;22.42;19.20;;;32.30;70.50;;;;;;1838898;76;21125;-72
2023/02/07 09:15:29;;;;;;;21.15;18.75;;;32.30;70.10;;;;;;1839779;76;21180;-72
2023/02/07 09:18:00;;;;;;;22.40;19.10;;;32.30;69.30;;;;;;1841114;76;21178;-71
2023/02/07 09:20:31;;;;;;;22.52;20.17;;;32.20;69.20;;;;;;1836373;76;21252;-72
2023/02/07 09:23:17;;;;;;;21.68;19.10;;;32.20;69.00;;;;;;1782901;79;21187;-72
2023/02/07 09:25:49;;;;;;;21.90;19.67;;;32.20;69.10;;;;;;1812159;79;21151;-73
2023/02/07 09:28:22;;;;;;;25.88;22.90;;;32.20;68.60;;;;;;1851448;76;21201;-71
2023/02/07 09:30:53;;;;;;;26.15;22.52;;;32.20;69.10;;;;;;1819049;79;21827;-72
2023/02/07 09:33:24;;;;;;;27.05;23.57;;;32.20;69.50;;;;;;1851853;76;21194;-71
2023/02/07 09:35:55;;;;;;;27.30;24.32;;;32.20;69.80;;;;;;1859636;77;21165;-71
2023/02/07 09:38:27;;;;;;;28.23;24.65;;;32.20;71.10;;;;;;1822387;79;21147;-73
2023/02/07 09:41:01;;;;;;;31.35;25.35;;;32.20;71.70;;;;;;1854127;77;21091;-72
2023/02/07 09:43:52;;;;;;;29.12;26.07;;;32.20;72.50;;;;;;1854422;77;21229;-72
2023/02/07 09:46:27;;;;;;;33.80;29.65;;;32.10;72.30;;;;;;1807726;79;21198;-72
2023/02/07 09:49:06;;;;;;;31.93;27.40;;;32.10;72.60;;;;;;1849813;77;21664;-71
2023/02/07 09:51:40;;;;;;;31.02;27.10;;;32.10;72.50;;;;;;1789971;79;21084;-73
2023/02/07 09:54:32;;;;;;;34.35;25.20;;;32.10;72.90;;;;;;1851936;77;21598;-71
2023/02/07 09:57:05;;;;;;;26.00;23.30;;;32.00;72.80;;;;;;1807424;79;21076;-72
2023/02/07 09:59:56;;;;;;;28.55;23.77;;;32.00;73.00;;;;;;1851310;77;21338;-73
2023/02/07 10:02:32;;;;;;;26.85;23.27;;;31.90;73.20;;;;;;1848177;77;21118;-73
2023/02/07 10:05:12;;;;;;;25.08;22.52;;;31.90;73.50;;;;;;1843440;77;21183;-72
2023/02/07 10:07:46;;;;;;;25.08;22.00;;;31.90;73.30;;;;;;1848489;77;21579;-72
2023/02/07 10:10:25;;;;;;;28.62;21.82;;;31.80;72.70;;;;;;1857183;76;21142;-73
2023/02/07 10:13:08;;;;;;;24.95;22.35;;;31.80;73.20;;;;;;1816531;79;21154;-72
2023/02/07 10:15:44;;;;;;;24.60;22.07;;;31.80;73.20;;;;;;1855408;76;21559;-73
2023/02/07 10:18:41;;;;;;;30.70;23.02;;;31.70;73.30;;;;;;1859143;77;21245;-73
2023/02/07 10:21:33;;;;;;;26.80;23.02;;;31.70;73.40;;;;;;1815758;78;21209;-73
2023/02/07 10:24:07;;;;;;;29.82;26.57;;;31.70;73.70;;;;;;1855727;77;22055;-72
2023/02/07 10:26:41;;;;;;;26.10;23.12;;;31.70;73.90;;;;;;1816643;79;21132;-72
2023/02/07 10:29:35;;;;;;;24.77;22.13;;;31.60;73.80;;;;;;1807788;79;21221;-72
2023/02/07 10:32:11;;;;;;;26.80;21.93;;;31.50;73.90;;;;;;1816789;77;21960;-72
2023/02/07 10:34:45;;;;;;;28.23;23.27;;;31.50;74.10;;;;;;1853854;77;21162;-72
2023/02/07 10:37:25;;;;;;;31.20;24.85;;;31.50;74.50;;;;;;1857296;76;21091;-72
2023/02/07 10:39:59;;;;;;;27.95;24.45;;;31.50;74.60;;;;;;1853095;76;21076;-73
2023/02/07 10:42:32;;;;;;;25.90;23.10;;;31.40;74.80;;;;;;1856190;77;21592;-73
2023/02/07 10:45:04;;;;;;;27.85;23.52;;;31.40;75.20;;;;;;1863526;76;21159;-73
2023/02/07 10:47:37;;;;;;;31.77;26.15;;;31.30;75.50;;;;;;1819704;78;21154;-73
2023/02/07 10:50:13;;;;;;;29.60;24.02;;;31.30;75.90;;;;;;1854025;77;21190;-72
2023/02/07 10:52:52;;;;;;;26.73;23.92;;;31.30;76.20;;;;;;1853882;76;21185;-72
2023/02/07 10:55:42;;;;;;;26.90;23.92;;;31.20;76.50;;;;;;1858736;76;21221;-72
2023/02/07 10:58:18;;;;;;;29.18;24.75;;;31.20;76.80;;;;;;1791045;79;21099;-71
2023/02/07 11:00:55;;;;;;;29.07;25.90;;;31.20;77.20;;;;;;1854770;77;21079;-71
2023/02/07 11:03:45;;;;;;;34.13;28.12;;;31.10;77.30;;;;;;1861633;76;21083;-72
2023/02/07 11:06:18;;;;;;;40.83;31.75;;;31.10;77.40;;;;;;1943916;73;21904;-72
2023/02/07 11:08:50;;;;;;;34.48;28.35;;;31.00;77.60;;;;;;1931194;73;21610;-72
2023/02/07 11:11:27;;;;;;;30.82;26.17;;;31.00;78.00;;;;;;1925644;73;21123;-73
2023/02/07 11:13:58;;;;;;;;;;;31.00;78.20;;;;;;1923137;73;21091;-72
2023/02/07 11:16:29;;;;;;;31.65;25.30;;;31.00;78.30;;;;;;1931610;73;20202;-73
2023/02/07 11:19:06;;;;;;;32.35;27.42;;;30.90;78.90;;;;;;1926915;73;21219;-74
2023/02/07 11:21:41;;;;;;;30.85;27.20;;;30.80;79.30;;;;;;1931954;73;21099;-72
2023/02/07 11:24:30;;;;;;;35.50;27.23;;;30.90;79.70;;;;;;1925871;73;21060;-73
2023/02/07 11:27:05;;;;;;;31.65;25.72;;;30.80;79.60;;;;;;1927117;73;21588;-73
2023/02/07 11:29:39;;;;;;;28.40;25.43;;;30.80;79.80;;;;;;1925068;73;21725;-72
2023/02/07 11:32:13;;;;;;;31.65;27.60;;;30.80;80.00;;;;;;1927634;73;21588;-73
2023/02/07 11:34:46;;;;;;;32.78;26.82;;;30.70;80.10;;;;;;1930238;73;21805;-73
2023/02/07 11:37:26;;;;;;;30.23;26.48;;;30.70;80.20;;;;;;1933134;73;21198;-71
2023/02/07 11:40:03;;;;;;;37.48;29.80;;;30.70;80.30;;;;;;1927151;73;21140;-72
2023/02/07 11:42:35;;;;;;;33.85;27.82;;;30.70;80.30;;;;;;1904898;73;21154;-71
2023/02/07 11:45:10;;;;;;;40.28;32.80;;;30.60;80.20;;;;;;1933904;73;21061;-71
2023/02/07 11:47:43;;;;;;;44.30;33.45;;;30.60;80.30;;;;;;1929598;73;21150;-73
2023/02/07 11:50:19;;;;;;;41.90;31.57;;;30.60;80.40;;;;;;1929497;73;21183;-74
2023/02/07 11:52:55;;;;;;;39.78;31.65;;;30.60;80.40;;;;;;1926486;73;21111;-82
2023/02/07 11:55:31;;;;;;;42.45;31.65;;;30.50;80.50;;;;;;1930094;73;21615;-82
2023/02/07 11:58:20;;;;;;;43.08;33.20;;;30.50;80.70;;;;;;1867682;76;21587;-81
2023/02/07 12:00:52;;;;;;;37.13;29.27;;;30.50;80.90;;;;;;1926799;73;21145;-80
2023/02/07 12:03:24;;;;;;;34.05;28.75;;;30.50;81.20;;;;;;1933266;73;22296;-82
2023/02/07 12:06:07;;;;;;;37.58;28.57;;;30.40;81.40;;;;;;1922035;73;21127;-81
2023/02/07 12:08:46;;;;;;;35.15;28.83;;;30.50;82.10;;;;;;1940563;73;21567;-82
2023/02/07 12:11:19;;;;;;;39.05;29.30;;;30.40;82.90;;;;;;1942274;73;21139;-81
2023/02/07 12:14:07;;;;;;;32.17;28.73;;;30.40;82.10;;;;;;1923887;73;21193;-82
2023/02/07 12:16:44;;;;;;;34.00;30.12;;;30.40;82.20;;;;;;1917925;73;21124;-82
2023/02/07 12:19:23;;;;;;;36.77;32.08;;;30.40;82.40;;;;;;1944305;73;21162;-82
2023/02/07 12:21:56;;;;;;;36.77;29.87;;;30.40;82.70;;;;;;1928612;73;21232;-83
2023/02/07 12:24:35;;;;;;;41.92;28.83;;;30.40;82.80;;;;;;1930068;73;21185;-82
2023/02/07 12:27:17;;;;;;;33.88;27.98;;;30.30;82.80;;;;;;1940750;73;21135;-81
2023/02/07 12:30:00;;;;;;;33.58;29.65;;;30.30;83.20;;;;;;1936045;73;21153;-82
2023/02/07 12:32:55;;;;;;;35.78;28.85;;;30.30;83.60;;;;;;1933361;73;21602;-82
2023/02/07 12:35:58;;;;;;;31.00;27.40;;;30.30;83.80;;;;;;1936433;73;21190;-81
2023/02/07 12:38:39;;;;;;;33.02;28.02;;;30.30;83.90;;;;;;1922596;73;21209;-83
2023/02/07 12:41:18;;;;;;;33.00;29.27;;;30.30;83.90;;;;;;1926793;73;21615;-81
2023/02/07 12:43:54;;;;;;;30.95;27.58;;;30.30;84.20;;;;;;1928727;73;21602;-82
2023/02/07 12:46:37;;;;;;;31.50;28.07;;;30.30;84.20;;;;;;1928937;73;21159;-82
2023/02/07 12:49:20;;;;;;;35.45;28.45;;;30.30;84.30;;;;;;1939684;73;21169;-81
2023/02/07 12:52:08;;;;;;;39.48;29.37;;;30.20;84.90;;;;;;1863355;73;21189;-82
2023/02/07 12:54:59;;;;;;;36.73;29.60;;;30.20;84.90;;;;;;1947583;73;21127;-83
2023/02/07 12:57:39;;;;;;;32.93;28.42;;;30.20;85.50;;;;;;1934918;73;21143;-81
2023/02/07 13:00:30;;;;;;;38.75;30.60;;;30.20;85.70;;;;;;1930118;73;21135;-82
2023/02/07 13:03:38;;;;;;;30.25;27.10;;;30.20;85.80;;;;;;1904357;73;21167;-83
2023/02/07 13:06:45;;;;;;;33.18;27.42;;;30.20;85.80;;;;;;1917287;73;21587;-80